Time;durP1;ratioP1;P1;durP2;ratioP2;P2;SDS_P1;SDS_P2;PMS_P1;PMS_P2;Temp;Humidity;BMP_temperature;BMP_pressure;BME280_temperature;BME280_humidity;BME280_pressure;Samples;Min_cycle;Max_cycle;Signal;HPM_P1;HPM_P2
2024/01/02 06:19:43;;;;;;;54.00;25.90;;;;;;;7.67;77.56;99334.94;5517773;23;20106;-94
2024/01/02 06:22:11;;;;;;;52.22;25.75;;;;;;;7.73;77.17;99341.97;4836701;29;20494;-92
2024/01/02 06:24:58;;;;;;;47.22;23.95;;;;;;;7.95;77.10;99368.78;4829052;29;20153;-92
2024/01/02 06:27:28;;;;;;;39.92;22.42;;;;;;;7.94;77.34;99360.97;4853697;29;20119;-93
2024/01/02 06:29:55;;;;;;;39.67;23.67;;;;;;;8.08;77.21;99375.63;4838402;29;20097;-93
2024/01/02 06:32:21;;;;;;;16.65;8.90;;;;;;;7.95;72.84;99365.25;4837435;29;20037;-91
2024/01/02 06:34:52;;;;;;;10.60;5.85;;;;;;;8.07;71.60;99380.19;4844332;29;20047;-92
2024/01/02 06:37:20;;;;;;;15.32;6.57;;;;;;;8.02;72.84;99368.56;4849307;29;20043;-93
2024/01/02 06:39:52;;;;;;;13.50;6.78;;;;;;;7.97;73.88;99372.03;4846523;29;20029;-94
2024/01/02 06:42:23;;;;;;;15.05;6.93;;;;;;;8.00;73.54;99368.81;4863249;29;20044;-92
2024/01/02 06:44:49;;;;;;;11.20;6.57;;;;;;;7.92;73.74;99355.84;4855311;29;20131;-93
2024/01/02 06:47:15;;;;;;;12.05;5.60;;;;;;;8.08;73.52;99370.25;4869536;29;20078;-94
2024/01/02 06:49:42;;;;;;;11.30;5.25;;;;;;;8.25;73.33;99394.28;4868254;29;20039;-91
2024/01/02 06:54:55;;;;;;;16.05;7.93;;;;;;;8.32;72.24;99394.88;4856864;29;20045;-92
2024/01/02 06:57:20;;;;;;;8.18;4.43;;;;;;;8.34;71.71;99400.00;4838008;29;20080;-92
2024/01/02 06:59:52;;;;;;;15.48;8.40;;;;;;;8.18;72.48;99374.94;4839839;29;20039;-93
2024/01/02 07:02:32;;;;;;;18.38;10.90;;;;;;;8.04;72.85;99375.31;4856049;29;20071;-93
2024/01/02 07:04:59;;;;;;;11.40;7.45;;;;;;;8.11;72.24;99380.47;4867213;29;20052;-91
2024/01/02 07:07:29;;;;;;;17.67;11.05;;;;;;;8.29;73.40;99406.13;4834557;29;20052;-91
2024/01/02 07:09:55;;;;;;;21.40;14.32;;;;;;;8.13;74.38;99390.94;4849408;29;20069;-92
2024/01/02 07:12:21;;;;;;;23.85;13.75;;;;;;;8.13;73.97;99389.06;4833776;29;20067;-89
2024/01/02 07:14:47;;;;;;;22.95;13.07;;;;;;;7.98;74.30;99380.88;4849066;29;20079;-89
2024/01/02 07:17:19;;;;;;;19.85;12.02;;;;;;;7.97;74.30;99379.22;4865248;29;20096;-90
2024/01/02 07:19:48;;;;;;;22.98;14.82;;;;;;;7.98;75.84;99396.94;4851580;29;20048;-90
2024/01/02 07:22:13;;;;;;;28.30;16.55;;;;;;;8.06;75.72;99404.56;4851885;29;20045;-89
2024/01/02 07:24:39;;;;;;;25.85;15.55;;;;;;;8.12;75.37;99410.78;4876486;29;20498;-92
2024/01/02 07:27:05;;;;;;;25.58;16.38;;;;;;;8.16;75.53;99417.28;4852852;29;20044;-89
2024/01/02 07:29:32;;;;;;;29.42;17.92;;;;;;;8.02;75.79;99392.72;4869011;29;20499;-89
2024/01/02 07:31:58;;;;;;;32.00;18.15;;;;;;;8.15;75.61;99397.66;4843897;29;20037;-91
2024/01/02 07:34:24;;;;;;;31.85;16.98;;;;;;;8.17;75.64;99405.47;4851425;29;20104;-90
2024/01/02 07:36:52;;;;;;;27.52;16.90;;;;;;;8.05;75.65;99394.88;4850344;29;20108;-90
2024/01/02 07:39:19;;;;;;;29.20;16.70;;;;;;;8.09;75.08;99391.47;4831450;29;20092;-90
2024/01/02 07:41:47;;;;;;;30.58;16.65;;;;;;;8.18;74.97;99393.69;4884016;29;20111;-89
2024/01/02 07:44:12;;;;;;;26.92;16.60;;;;;;;8.22;75.04;99406.34;4848744;29;20167;-90
2024/01/02 07:46:38;;;;;;;26.80;15.85;;;;;;;8.09;74.20;99388.78;4854547;29;20032;-90
2024/01/02 07:49:04;;;;;;;28.33;16.55;;;;;;;8.20;74.57;99421.06;4883555;29;20037;-91
2024/01/02 07:51:30;;;;;;;30.95;17.65;;;;;;;8.09;74.65;99407.56;4851588;29;20033;-90
2024/01/02 07:53:56;;;;;;;34.85;20.63;;;;;;;8.20;74.95;99421.88;4867795;29;20033;-92
2024/01/02 07:56:22;;;;;;;30.25;16.30;;;;;;;8.13;74.89;99399.78;4835562;29;20047;-89
2024/01/02 07:59:02;;;;;;;27.63;16.10;;;;;;;8.28;74.79;99421.44;4861560;29;20066;-91
2024/01/02 08:01:29;;;;;;;25.55;15.18;;;;;;;8.08;75.24;99403.22;4830790;29;20029;-94
2024/01/02 08:03:56;;;;;;;20.83;14.32;;;;;;;8.12;75.11;99408.13;4868303;29;20048;-93
2024/01/02 08:06:22;;;;;;;24.15;14.52;;;;;;;8.19;75.28;99440.91;4841025;29;20033;-93
2024/01/02 08:09:15;;;;;;;22.73;13.00;;;;;;;7.85;76.41;99425.75;4844413;29;20065;-93
2024/01/02 08:11:50;;;;;;;28.23;14.02;;;;;;;7.85;76.78;99430.31;4829181;29;20570;-93
2024/01/02 08:14:17;;;;;;;21.88;13.32;;;;;;;7.69;77.37;99418.56;4857640;29;20038;-94
2024/01/02 08:16:44;;;;;;;22.00;12.90;;;;;;;7.84;77.11;99417.94;4852408;29;20036;-93
2024/01/02 08:19:10;;;;;;;28.05;12.57;;;;;;;7.95;76.56;99410.84;4861891;29;20036;-91
2024/01/02 08:21:39;;;;;;;23.73;12.32;;;;;;;8.06;76.45;99420.66;4858304;29;20503;-92
2024/01/02 08:24:08;;;;;;;22.75;11.68;;;;;;;8.26;75.66;99439.66;4847401;29;20037;-95
2024/01/02 08:26:47;;;;;;;23.90;11.65;;;;;;;8.18;75.64;99418.63;4858290;29;20041;-95
2024/01/02 08:29:24;;;;;;;19.92;12.07;;;;;;;8.28;75.04;99429.47;4873405;29;20145;-94
2024/01/02 08:32:15;;;;;;;24.40;13.18;;;;;;;8.35;75.19;99433.84;4844823;29;20032;-95
2024/01/02 08:34:43;;;;;;;27.88;14.07;;;;;;;8.39;74.71;99437.63;4868042;29;20044;-96
2024/01/02 08:37:14;;;;;;;21.30;13.20;;;;;;;8.42;74.83;99437.16;4880067;29;20037;-93
2024/01/02 08:39:40;;;;;;;17.98;10.93;;;;;;;8.44;74.23;99425.09;4856159;29;20522;-93
2024/01/02 08:42:09;;;;;;;24.42;15.00;;;;;;;8.52;73.77;99452.56;4856291;29;20491;-92
2024/01/02 08:44:45;;;;;;;18.15;10.48;;;;;;;8.34;73.97;99441.06;4859274;29;20043;-91
2024/01/02 08:47:11;;;;;;;18.15;9.77;;;;;;;8.49;73.97;99445.81;4841426;29;20045;-92
2024/01/02 08:49:50;;;;;;;;;;;;;;;;;;;;;
2024/01/02 08:52:51;;;;;;;;;;;;;;;;;;;;;
2024/01/02 08:55:31;;;;;;;;;;;;;;;;;;;;;
2024/01/02 08:58:00;;;;;;;15.30;10.02;;;;;;;8.48;74.26;99436.13;4861683;29;20131;-91
2024/01/02 09:00:39;;;;;;;12.95;9.15;;;;;;;8.61;73.51;99451.84;4840585;29;20045;-92
2024/01/02 09:03:16;;;;;;;16.80;9.80;;;;;;;8.66;73.40;99449.22;4857600;29;20044;-93
2024/01/02 09:05:50;;;;;;;11.43;7.40;;;;;;;8.79;72.93;99465.97;4855572;29;20057;-93
2024/01/02 09:08:21;;;;;;;15.20;8.38;;;;;;;8.61;73.38;99438.44;4856077;29;20052;-90
2024/01/02 09:21:10;;;;;;;14.43;9.32;;;;;;;8.82;73.32;99450.16;4889175;29;20052;-94
2024/01/02 09:23:39;;;;;;;13.32;8.00;;;;;;;8.98;73.18;99451.09;4877111;29;20039;-92
2024/01/02 09:26:07;;;;;;;12.27;7.53;;;;;;;8.83;72.51;99429.50;4856335;29;20048;-92
2024/01/02 09:28:33;;;;;;;13.85;6.32;;;;;;;8.89;72.10;99423.09;4846809;29;20562;-93
2024/01/02 09:30:59;;;;;;;18.23;10.00;;;;;;;9.10;72.21;99434.81;4862109;29;20111;-90
2024/01/02 09:33:28;;;;;;;7.75;4.82;;;;;;;9.25;70.38;99442.16;4838509;29;20029;-94
2024/01/02 09:35:53;;;;;;;11.77;7.40;;;;;;;9.09;71.51;99411.72;4839759;29;20048;-92
2024/01/02 09:38:21;;;;;;;16.27;10.75;;;;;;;9.15;71.41;99404.50;4853097;29;20511;-92
2024/01/02 09:41:02;;;;;;;16.60;10.23;;;;;;;9.26;72.43;99428.50;4839163;29;20041;-93
2024/01/02 09:43:55;;;;;;;18.25;9.90;;;;;;;9.29;72.04;99421.78;4870768;29;20036;-93
2024/01/02 09:46:39;;;;;;;12.85;8.45;;;;;;;9.27;72.46;99423.91;4876878;29;20119;-93
2024/01/02 09:49:20;;;;;;;12.73;8.82;;;;;;;9.28;72.16;99425.56;4856584;29;20052;-94
2024/01/02 09:55:47;;;;;;;10.75;6.88;;;;;;;9.26;71.35;99384.69;4888554;29;20100;-95
2024/01/02 09:58:24;;;;;;;7.97;5.97;;;;;;;9.27;71.09;99389.78;4857286;29;20044;-94
2024/01/02 10:01:13;;;;;;;12.15;5.50;;;;;;;9.28;71.58;99404.84;4840195;29;20041;-93
2024/01/02 10:04:04;;;;;;;10.73;5.88;;;;;;;9.34;71.79;99412.94;4870000;29;20043;-94
2024/01/02 10:06:32;;;;;;;12.48;7.20;;;;;;;9.09;72.27;99407.16;4887708;29;20068;-92
2024/01/02 10:09:22;;;;;;;9.35;5.50;;;;;;;9.13;72.59;99401.25;4888087;29;20036;-92
2024/01/02 10:12:14;;;;;;;10.55;6.65;;;;;;;9.15;72.03;99393.75;4841314;29;20041;-92
2024/01/02 10:15:04;;;;;;;12.07;6.68;;;;;;;9.28;71.94;99383.38;4870818;29;20025;-94
2024/01/02 10:17:57;;;;;;;12.95;6.22;;;;;;;9.32;71.63;99364.84;4854786;29;20052;-95
2024/01/02 10:21:04;;;;;;;17.55;8.93;;;;;;;9.29;71.05;99343.88;4865735;29;20100;-95
2024/01/02 10:23:57;;;;;;;17.80;10.50;;;;;;;9.40;71.92;99347.41;4883662;29;20045;-95
2024/01/02 10:27:31;;;;;;;17.20;10.73;;;;;;;9.56;72.35;99364.44;4865944;29;20048;-95
2024/01/02 10:30:21;;;;;;;;;;;;;;;;;;;;;
2024/01/02 10:33:22;;;;;;;18.15;10.63;;;;;;;9.69;72.04;99366.63;4895462;29;20044;-91
2024/01/02 10:36:08;;;;;;;18.35;8.70;;;;;;;9.58;71.95;99346.97;4866884;29;20037;-90
2024/01/02 10:39:04;;;;;;;12.57;7.82;;;;;;;9.79;71.82;99347.84;4856275;29;20072;-90
2024/01/02 10:41:48;;;;;;;12.43;7.40;;;;;;;9.59;71.01;99315.53;4870110;29;20040;-92
2024/01/02 10:44:43;;;;;;;8.38;4.97;;;;;;;9.78;69.53;99340.88;4873851;29;20044;-89
2024/01/02 10:47:31;;;;;;;7.47;4.10;;;;;;;9.80;68.94;99317.22;4852319;29;20053;-91
2024/01/02 10:50:15;;;;;;;7.50;4.53;;;;;;;9.72;70.42;99301.59;4860530;29;20739;-92
2024/01/02 10:53:04;;;;;;;8.98;3.58;;;;;;;9.74;69.97;99315.56;4852217;29;20086;-93
2024/01/02 10:55:48;;;;;;;4.63;2.90;;;;;;;9.78;69.01;99313.97;4838219;29;20052;-94
2024/01/02 11:01:15;;;;;;;6.38;3.45;;;;;;;9.75;68.60;99336.00;4891073;28;20432;-94
2024/01/02 11:04:05;;;;;;;6.57;3.67;;;;;;;9.74;68.98;99322.84;4868223;29;20583;-92
2024/01/02 11:07:16;;;;;;;8.02;4.90;;;;;;;9.53;69.43;99292.41;4853999;29;20044;-94
2024/01/02 11:10:08;;;;;;;6.97;4.57;;;;;;;9.55;68.83;99311.75;4850696;29;20052;-96
2024/01/02 11:12:50;;;;;;;9.05;5.50;;;;;;;9.74;69.01;99315.56;4834777;29;20045;-94
2024/01/02 11:15:15;;;;;;;7.18;4.95;;;;;;;9.53;69.53;99279.75;4846934;29;20146;-93
2024/01/02 11:17:46;;;;;;;4.95;3.55;;;;;;;9.70;69.22;99269.59;4819690;29;20041;-95
2024/01/02 11:20:25;;;;;;;10.13;5.50;;;;;;;9.82;68.88;99269.34;4818153;29;20041;-92
2024/01/02 11:23:04;;;;;;;;;;;;;;;;;;;;;
2024/01/02 11:25:48;;;;;;;;;;;;;;;;;;;;;
2024/01/02 11:28:14;;;;;;;4.20;2.83;;;;;;;10.16;67.64;99258.09;4801509;29;20136;-90
2024/01/02 11:30:47;;;;;;;9.07;5.35;;;;;;;10.23;66.76;99244.34;4816050;29;20058;-92
2024/01/02 11:34:13;;;;;;;15.73;7.10;;;;;;;10.49;65.96;99264.84;4798785;29;20046;-92
2024/01/02 11:37:07;;;;;;;9.00;4.05;;;;;;;10.63;65.93;99265.09;4817520;29;20065;-90
2024/01/02 11:40:11;;;;;;;5.30;2.65;;;;;;;10.47;63.64;99267.00;4829694;29;20148;-94
2024/01/02 11:43:09;;;;;;;5.03;3.33;;;;;;;10.48;64.81;99262.44;4869574;29;20041;-93
2024/01/02 11:45:38;;;;;;;12.02;6.50;;;;;;;10.39;64.01;99250.59;4869772;29;20049;-94
2024/01/02 11:48:31;;;;;;;4.70;3.00;;;;;;;10.66;62.53;99267.25;4857429;29;20075;-95
2024/01/02 11:51:24;;;;;;;6.00;2.60;;;;;;;10.46;62.55;99248.44;4893989;29;20037;-94
2024/01/02 11:54:30;;;;;;;7.28;4.38;;;;;;;10.31;64.63;99266.22;4832305;29;20040;-93
2024/01/02 11:56:59;;;;;;;7.35;3.20;;;;;;;10.17;65.65;99224.75;4848685;29;20040;-92
2024/01/02 11:59:50;;;;;;;8.38;4.93;;;;;;;10.37;65.74;99250.84;4833187;29;20101;-94
2024/01/02 12:02:22;;;;;;;7.65;3.90;;;;;;;10.50;65.83;99252.22;4839056;29;20057;-96
2024/01/02 12:05:09;;;;;;;7.95;4.45;;;;;;;10.48;66.26;99248.97;4844654;29;20456;-94
2024/01/02 12:07:41;;;;;;;6.10;4.22;;;;;;;10.26;66.29;99212.34;4869036;29;20037;-92
2024/01/02 12:10:06;;;;;;;4.40;3.55;;;;;;;10.25;67.85;99220.69;4848501;29;20029;-93
2024/01/02 12:12:53;;;;;;;5.05;2.88;;;;;;;10.45;66.52;99244.91;4865212;29;20060;-96
2024/01/02 12:16:03;;;;;;;4.47;3.10;;;;;;;10.12;67.13;99217.44;4862320;29;20045;-95
2024/01/02 12:18:45;;;;;;;;;;;;;;;;;;;;;
2024/01/02 12:21:43;;;;;;;4.68;2.78;;;;;;;10.38;66.01;99230.16;4836180;29;20124;-92
2024/01/02 12:24:14;;;;;;;5.05;2.70;;;;;;;10.33;66.72;99228.25;4856272;29;20045;-95
2024/01/02 12:30:19;;;;;;;3.75;2.03;;;;;;;10.55;64.36;99229.84;4887675;29;20079;-95
2024/01/02 12:33:10;;;;;;;8.70;2.92;;;;;;;10.63;65.76;99258.91;4856599;29;20038;-94
2024/01/02 12:36:07;;;;;;;5.22;3.33;;;;;;;10.75;66.22;99258.59;4828902;29;20037;-94
2024/01/02 12:39:06;;;;;;;6.22;3.72;;;;;;;10.72;65.54;99236.53;4834928;29;20029;-93
2024/01/02 12:41:37;;;;;;;3.60;2.40;;;;;;;10.73;64.38;99229.28;4794629;29;20066;-92
2024/01/02 12:44:06;;;;;;;3.38;2.13;;;;;;;10.63;65.08;99221.22;4789187;29;20050;-94
2024/01/02 12:46:52;;;;;;;4.00;2.17;;;;;;;10.38;64.70;99228.25;4800101;29;20474;-91
2024/01/02 12:49:42;;;;;;;2.90;2.08;;;;;;;10.16;66.00;99216.94;4785307;29;20046;-91
2024/01/02 12:52:09;;;;;;;5.25;2.85;;;;;;;9.94;66.92;99209.09;4798263;29;20106;-94
2024/01/02 12:54:38;;;;;;;5.55;2.75;;;;;;;10.03;66.74;99218.28;4785308;29;20035;-90
2024/01/02 12:57:54;;;;;;;;;;;;;;;;;;;;;
2024/01/02 13:00:20;;;;;;;7.40;3.05;;;;;;;9.96;66.55;99204.28;4752218;30;20123;-92
2024/01/02 13:02:46;;;;;;;7.70;4.57;;;;;;;10.07;66.27;99227.44;4743372;30;20048;-91
2024/01/02 13:05:25;;;;;;;8.68;5.38;;;;;;;9.89;66.59;99207.22;4787484;29;20070;-91
2024/01/02 13:07:50;;;;;;;6.93;4.30;;;;;;;9.80;66.09;99201.59;4787947;30;20047;-92
2024/01/02 13:10:26;;;;;;;4.07;2.40;;;;;;;9.87;62.35;99215.56;4788918;29;20547;-94
2024/01/02 13:15:52;;;;;;;3.65;1.90;;;;;;;9.93;62.73;99218.25;4847778;29;20559;-95
2024/01/02 13:18:34;;;;;;;6.15;3.05;;;;;;;9.85;61.93;99196.19;4836308;29;20038;-94
2024/01/02 13:21:02;;;;;;;5.88;3.05;;;;;;;9.89;62.34;99199.16;4841716;29;20040;-93
2024/01/02 13:23:31;;;;;;;6.90;4.43;;;;;;;10.00;60.54;99218.78;4823061;29;20048;-94
2024/01/02 13:25:58;;;;;;;3.47;2.15;;;;;;;9.88;60.89;99186.81;4850177;29;20036;-90
2024/01/02 13:28:56;;;;;;;6.68;4.03;;;;;;;9.93;60.90;99211.00;4819112;29;20041;-93
2024/01/02 13:31:40;;;;;;;6.90;3.63;;;;;;;9.86;61.08;99195.13;4824469;29;20041;-90
2024/01/02 13:34:08;;;;;;;3.25;2.20;;;;;;;9.94;61.10;99198.34;4819692;29;20498;-91
2024/01/02 13:37:07;;;;;;;;;;;;;;;;;;;;;
2024/01/02 13:39:43;;;;;;;5.57;3.30;;;;;;;9.98;60.52;99194.06;4847494;29;20120;-95
2024/01/02 13:42:34;;;;;;;3.95;2.30;;;;;;;9.80;60.38;99196.19;4841713;29;20048;-92
2024/01/02 13:54:02;;;;;;;7.88;5.63;;;;;;;9.88;61.10;99189.50;4891044;29;20069;-96
2024/01/02 13:56:49;;;;;;;5.53;3.13;;;;;;;9.85;60.96;99196.19;4856258;29;20041;-95
2024/01/02 13:59:40;;;;;;;4.07;2.30;;;;;;;9.79;61.29;99189.19;4860563;29;20044;-94
2024/01/02 14:02:19;;;;;;;3.85;2.75;;;;;;;9.84;61.79;99191.91;4860948;29;20043;-96
2024/01/02 14:04:51;;;;;;;5.05;3.00;;;;;;;9.78;60.88;99190.28;4861125;29;20068;-95
2024/01/02 14:07:58;;;;;;;4.77;2.37;;;;;;;9.93;61.40;99213.69;4848069;29;20041;-96
2024/01/02 14:10:45;;;;;;;3.78;2.05;;;;;;;9.83;61.18;99181.41;4854053;29;20376;-96
2024/01/02 14:17:38;;;;;;;7.35;3.80;;;;;;;9.53;62.51;99172.25;4838388;29;20037;-95
2024/01/02 14:20:51;;;;;;;3.63;2.72;;;;;;;9.74;61.66;99213.41;4841856;29;20037;-91
2024/01/02 14:23:35;;;;;;;4.60;2.60;;;;;;;9.66;62.45;99208.56;4868257;29;20047;-95
2024/01/02 14:26:25;;;;;;;4.25;2.38;;;;;;;9.44;63.84;99198.00;4867817;29;20044;-93
2024/01/02 14:28:57;;;;;;;5.60;3.38;;;;;;;9.36;64.43;99183.22;4852464;29;20045;-93
2024/01/02 14:31:33;;;;;;;9.82;5.00;;;;;;;9.36;65.22;99202.03;4838462;29;20048;-94
2024/01/02 14:34:17;;;;;;;10.57;6.50;;;;;;;9.35;66.05;99216.53;4858800;29;20033;-93
2024/01/02 14:37:24;;;;;;;14.05;6.80;;;;;;;9.27;66.14;99223.22;4869433;29;20124;-91
2024/01/02 14:40:03;;;;;;;14.90;7.25;;;;;;;9.06;66.39;99200.84;4873845;29;20130;-92
2024/01/02 14:42:43;;;;;;;25.40;11.07;;;;;;;9.09;66.82;99207.59;4865272;29;20044;-91
2024/01/02 14:45:10;;;;;;;22.90;10.40;;;;;;;8.92;67.19;99207.75;4856725;29;20108;-91
2024/01/02 14:51:18;;;;;;;36.92;17.02;;;;;;;8.98;66.67;99216.66;4884954;29;20047;-93
2024/01/02 14:54:08;;;;;;;52.08;24.13;;;;;;;9.01;67.58;99229.56;4823544;29;20066;-93
2024/01/02 14:56:43;;;;;;;92.68;36.55;;;;;;;8.82;67.56;99215.75;4867099;29;20476;-93
2024/01/02 14:59:22;;;;;;;47.78;24.42;;;;;;;8.87;67.15;99237.28;4866718;29;20517;-91
2024/01/02 15:02:06;;;;;;;51.85;26.75;;;;;;;8.77;67.56;99231.84;4866594;29;20064;-94
2024/01/02 15:05:22;;;;;;;37.78;21.75;;;;;;;8.37;68.75;99198.31;4852133;29;20041;-91
2024/01/02 15:08:10;;;;;;;46.15;24.15;;;;;;;8.53;68.90;99237.63;4826531;29;20045;-93
2024/01/02 15:11:08;;;;;;;65.28;34.30;;;;;;;8.33;68.92;99210.63;4855755;29;20051;-93
2024/01/02 15:13:40;;;;;;;59.47;32.50;;;;;;;8.42;69.42;99227.88;4851891;29;20033;-93
2024/01/02 15:16:35;;;;;;;42.55;26.92;;;;;;;8.37;69.54;99225.94;4866564;29;20045;-90
2024/01/02 15:19:20;;;;;;;36.33;23.98;;;;;;;8.33;69.51;99242.81;4852654;29;20064;-93
2024/01/02 15:22:16;;;;;;;37.13;24.88;;;;;;;8.34;70.00;99239.84;4883805;29;20037;-94
2024/01/02 15:25:06;;;;;;;33.17;25.17;;;;;;;8.18;70.13;99236.25;4856578;29;20042;-94
2024/01/02 15:27:48;;;;;;;32.63;22.67;;;;;;;8.21;70.01;99241.09;4838717;29;20037;-94
2024/01/02 15:30:16;;;;;;;37.50;23.40;;;;;;;8.08;70.50;99223.56;4826144;29;20105;-90
2024/01/02 15:33:03;;;;;;;33.05;23.48;;;;;;;8.13;70.97;99235.41;4814203;29;20073;-96
2024/01/02 15:35:32;;;;;;;28.85;19.85;;;;;;;7.92;70.68;99223.69;4814587;29;20041;-93
2024/01/02 15:38:04;;;;;;;27.88;20.90;;;;;;;7.81;70.39;99228.97;4800725;29;20037;-92
2024/01/02 15:40:36;;;;;;;35.15;23.08;;;;;;;7.83;70.36;99234.06;4816784;29;20045;-94
2024/01/02 15:43:07;;;;;;;36.05;21.08;;;;;;;7.79;71.22;99249.03;4815264;29;20038;-91
2024/01/02 15:45:47;;;;;;;38.22;24.17;;;;;;;7.86;71.29;99260.34;4830952;29;20061;-91
2024/01/02 15:48:20;;;;;;;43.13;25.83;;;;;;;7.65;71.10;99241.38;4842779;29;20077;-92
2024/01/02 15:50:46;;;;;;;41.50;25.95;;;;;;;7.56;71.41;99234.88;4842555;29;20061;-93
2024/01/02 15:53:56;;;;;;;35.35;22.83;;;;;;;7.79;71.52;99270.50;4846430;29;20056;-93
2024/01/02 15:56:29;;;;;;;32.22;19.65;;;;;;;7.61;71.32;99256.34;4878725;29;20480;-90
2024/01/02 15:59:27;;;;;;;32.83;18.63;;;;;;;7.73;71.47;99279.53;4855497;29;20035;-94
2024/01/02 16:02:12;;;;;;;29.52;17.58;;;;;;;7.68;71.90;99269.59;4858647;29;20132;-90
2024/01/02 16:04:47;;;;;;;38.65;21.85;;;;;;;7.52;72.30;99265.91;4851239;29;20037;-90
2024/01/02 16:07:31;;;;;;;77.30;46.85;;;;;;;7.57;72.68;99281.22;4860151;29;20463;-92
2024/01/02 16:10:32;;;;;;;;;;;;;;;;;;;;;
2024/01/02 16:15:53;;;;;;;38.22;20.67;;;;;;;7.28;73.33;99276.06;5463684;23;20270;-94
2024/01/02 16:18:37;;;;;;;33.55;20.52;;;;;;;7.31;73.07;99275.59;4855012;29;20048;-90
2024/01/02 16:21:17;;;;;;;47.75;24.27;;;;;;;7.35;73.63;99286.63;4853489;29;20060;-91
2024/01/02 16:23:57;;;;;;;41.47;25.33;;;;;;;7.36;73.34;99291.69;4862635;29;20119;-92
2024/01/02 16:26:41;;;;;;;56.90;33.33;;;;;;;7.32;73.85;99285.22;4887652;29;20139;-95
2024/01/02 16:29:43;;;;;;;51.33;28.20;;;;;;;7.15;74.28;99271.91;4894520;29;20076;-96
2024/01/02 16:32:25;;;;;;;36.17;18.87;;;;;;;7.15;73.99;99279.13;4886786;29;20238;-93
2024/01/02 16:35:05;;;;;;;36.45;20.35;;;;;;;7.12;74.25;99295.66;4877179;29;20029;-95
2024/01/02 16:37:38;;;;;;;48.30;27.30;;;;;;;7.06;73.92;99292.94;4888859;29;20044;-93
2024/01/02 16:41:01;;;;;;;54.88;29.80;;;;;;;7.00;74.82;99298.47;4886832;29;20056;-94
2024/01/02 16:43:40;;;;;;;55.50;30.88;;;;;;;6.80;75.19;99285.59;4878286;29;20048;-94
2024/01/02 16:46:07;;;;;;;35.75;22.73;;;;;;;6.58;75.29;99282.84;4857714;29;20041;-95
2024/01/02 16:48:34;;;;;;;34.17;19.60;;;;;;;6.61;74.84;99280.50;4858073;29;20414;-95
2024/01/02 16:51:01;;;;;;;46.17;26.45;;;;;;;6.60;75.42;99278.06;4857762;29;20426;-95
2024/01/02 16:53:27;;;;;;;52.78;31.48;;;;;;;6.59;75.62;99279.94;4857605;29;20037;-94
2024/01/02 16:55:53;;;;;;;50.92;30.15;;;;;;;6.72;75.32;99294.03;4874925;29;20127;-93
2024/01/02 16:58:22;;;;;;;151.73;82.60;;;;;;;6.75;74.93;99296.25;4857386;29;20072;-95
2024/01/02 17:00:48;;;;;;;137.18;75.80;;;;;;;6.73;74.80;99295.69;4874093;29;20028;-94
2024/01/02 17:03:15;;;;;;;87.22;52.58;;;;;;;6.62;74.83;99290.19;4859338;29;20044;-93
2024/01/02 17:05:45;;;;;;;60.97;36.47;;;;;;;6.48;75.36;99279.00;4858225;29;20487;-93
2024/01/02 17:08:13;;;;;;;45.95;26.67;;;;;;;6.50;75.20;99281.44;4872850;29;20503;-92
2024/01/02 17:10:38;;;;;;;31.83;19.13;;;;;;;6.31;74.77;99277.34;4857546;29;20044;-95
2024/01/02 17:13:05;;;;;;;41.55;23.83;;;;;;;6.23;75.28;99305.31;4860279;29;20029;-95
2024/01/02 17:15:30;;;;;;;29.27;17.65;;;;;;;6.05;75.01;99279.59;4858877;29;20159;-93
2024/01/02 17:17:56;;;;;;;27.33;16.58;;;;;;;6.06;75.15;99291.94;4874374;29;20498;-93
2024/01/02 17:20:31;;;;;;;31.70;16.45;;;;;;;5.93;75.68;99279.63;4858028;29;20040;-94
2024/01/02 17:22:57;;;;;;;24.40;15.10;;;;;;;5.86;75.41;99273.63;4856858;29;20419;-94
2024/01/02 17:25:24;;;;;;;33.40;16.00;;;;;;;5.85;75.64;99286.19;4857528;29;20036;-94
2024/01/02 17:27:51;;;;;;;25.95;16.15;;;;;;;5.85;75.83;99282.69;4871765;29;20032;-95
2024/01/02 17:30:17;;;;;;;25.42;15.52;;;;;;;5.72;76.01;99273.09;4855665;29;20040;-91
2024/01/02 17:32:43;;;;;;;17.33;10.77;;;;;;;5.79;75.95;99305.03;4856076;29;20486;-92
2024/01/02 17:35:09;;;;;;;25.30;17.15;;;;;;;5.74;76.02;99292.38;4855791;29;20411;-92
2024/01/02 17:37:37;;;;;;;32.72;16.88;;;;;;;5.77;75.76;99286.56;4853459;29;20040;-93
2024/01/02 17:40:05;;;;;;;36.47;24.02;;;;;;;5.70;75.25;99279.75;4855723;29;20040;-94
2024/01/02 17:42:31;;;;;;;42.13;25.00;;;;;;;5.71;75.85;99281.34;4871652;29;20051;-93
2024/01/02 17:44:57;;;;;;;36.35;23.80;;;;;;;5.78;76.01;99288.19;4855638;29;20068;-93
2024/01/02 17:47:22;;;;;;;78.35;35.92;;;;;;;5.60;76.08;99278.53;4871342;29;20483;-93
2024/01/02 17:49:48;;;;;;;59.95;32.78;;;;;;;5.65;76.44;99277.78;4854265;29;20040;-94
2024/01/02 17:52:16;;;;;;;49.40;31.33;;;;;;;5.73;76.25;99288.09;4856020;29;20426;-93
2024/01/02 17:54:44;;;;;;;38.80;21.85;;;;;;;5.64;76.88;99287.69;4855262;29;20064;-94
2024/01/02 17:57:22;;;;;;;26.92;15.18;;;;;;;5.55;76.57;99275.75;4854530;29;20418;-92
2024/01/02 18:00:00;;;;;;;28.05;17.10;;;;;;;5.55;76.29;99275.75;4854970;29;20044;-91
2024/01/02 18:02:34;;;;;;;38.28;20.77;;;;;;;5.61;76.62;99292.69;4871931;29;20041;-93
2024/01/02 18:05:08;;;;;;;52.58;26.30;;;;;;;5.58;76.59;99280.63;4885065;29;20043;-93
2024/01/02 18:07:43;;;;;;;38.75;17.58;;;;;;;5.54;76.85;99281.31;4855187;29;20043;-93
2024/01/02 18:10:12;;;;;;;38.25;19.40;;;;;;;5.44;76.85;99257.91;4884842;29;20632;-92
2024/01/02 18:13:00;;;;;;;26.73;14.45;;;;;;;5.41;75.82;99250.34;4854496;29;20479;-93
2024/01/02 18:15:48;;;;;;;18.60;10.48;;;;;;;5.56;75.85;99266.69;4870528;29;20080;-92
2024/01/02 18:18:46;;;;;;;96.60;46.85;;;;;;;5.60;75.65;99272.34;4869887;29;20032;-92
2024/01/02 18:21:41;;;;;;;28.13;16.30;;;;;;;5.55;76.02;99258.91;4880687;29;20491;-93
2024/01/02 18:24:28;;;;;;;43.90;23.98;;;;;;;5.53;75.97;99266.34;4872080;29;20048;-94
2024/01/02 18:27:00;;;;;;;26.58;13.10;;;;;;;5.45;76.50;99265.66;4885282;29;20041;-93
2024/01/02 18:29:53;;;;;;;22.55;11.27;;;;;;;5.47;75.64;99266.22;4886187;29;20132;-93
2024/01/02 18:32:41;;;;;;;25.35;11.10;;;;;;;5.35;76.17;99248.63;4885358;29;20048;-91
2024/01/02 18:35:17;;;;;;;24.75;12.13;;;;;;;5.41;75.79;99247.69;4868449;29;20044;-92
2024/01/02 18:37:57;;;;;;;16.30;9.77;;;;;;;5.35;75.66;99246.75;4869302;29;20131;-93
2024/01/02 18:40:25;;;;;;;15.25;7.38;;;;;;;5.44;75.44;99274.72;4854499;29;20048;-91
2024/01/02 18:43:01;;;;;;;21.00;11.07;;;;;;;5.40;75.57;99268.25;4853699;29;20040;-94
2024/01/02 18:45:30;;;;;;;31.55;12.10;;;;;;;5.34;75.33;99253.16;4836146;29;20040;-93
2024/01/02 18:48:02;;;;;;;31.92;10.93;;;;;;;5.46;75.54;99266.50;4854009;29;20040;-92
2024/01/02 18:50:31;;;;;;;47.80;15.30;;;;;;;5.42;75.18;99270.69;4871581;29;20151;-90
2024/01/02 18:53:13;;;;;;;29.65;10.82;;;;;;;5.51;74.82;99276.44;4836958;29;20514;-91
2024/01/02 18:55:42;;;;;;;12.52;5.95;;;;;;;5.45;74.44;99260.31;4850149;29;20049;-93
2024/01/02 18:58:11;;;;;;;11.27;6.38;;;;;;;5.33;74.89;99250.72;4838293;29;20119;-94
2024/01/02 19:00:39;;;;;;;21.67;9.05;;;;;;;5.35;74.56;99254.78;4854371;29;20104;-92
2024/01/02 19:03:05;;;;;;;16.65;8.05;;;;;;;5.24;75.00;99247.63;4838881;29;20044;-92
2024/01/02 19:05:40;;;;;;;15.90;7.90;;;;;;;5.28;75.64;99272.81;4844263;29;20033;-91
2024/01/02 19:08:10;;;;;;;13.60;9.23;;;;;;;5.12;75.68;99260.19;4867575;29;20048;-93
2024/01/02 19:10:40;;;;;;;16.35;8.43;;;;;;;5.09;76.25;99261.47;4872255;29;20040;-94
2024/01/02 19:13:09;;;;;;;17.52;7.97;;;;;;;5.26;75.41;99285.56;4848974;29;20050;-94
2024/01/02 19:15:35;;;;;;;10.32;5.75;;;;;;;5.21;75.79;99288.16;4818433;29;20077;-94
2024/01/02 19:18:01;;;;;;;13.70;7.65;;;;;;;4.99;75.95;99262.06;4818202;29;20048;-94
2024/01/02 19:20:28;;;;;;;28.92;14.15;;;;;;;4.93;75.42;99267.53;4818260;29;20499;-93
2024/01/02 19:23:00;;;;;;;25.70;12.13;;;;;;;5.00;76.44;99279.72;4817896;29;20041;-93
2024/01/02 19:25:29;;;;;;;40.30;18.27;;;;;;;4.75;76.26;99282.63;4819509;29;20073;-92
2024/01/02 19:27:56;;;;;;;31.73;16.90;;;;;;;4.75;75.88;99285.31;4819823;29;20037;-93
2024/01/02 19:30:26;;;;;;;28.23;16.35;;;;;;;4.77;76.34;99295.72;4817932;29;20071;-94
2024/01/02 19:32:52;;;;;;;31.95;15.77;;;;;;;4.71;76.60;99291.31;4818436;29;20575;-94
2024/01/02 19:35:17;;;;;;;24.50;15.75;;;;;;;4.82;76.44;99306.50;4832620;29;20050;-94